In Rescue
 
Open Full Screen Window  High Contrast Mode
August 09, 2020 6:31 PM CDT
Weather Information
Wind Direction
  ---
Wind Speed
  00 kt (0 mph)
Wind Gust
  00 kt (0 mph)
Altimeter
29.84 in
Visibility
10 SM
Temperature
23° C
73° F
Dewpoint
18° C
64° F
Humidity
74%
1hr Rain Fall
00.00 in.
24hr Rain Fall
00.63 in.
Sky Condition
Scattered @ 9,000 ft
VFR

METAR KAIT 092331Z AUTO 00000KT 10SM SCT090 23/18 A2984 RMK AO2 LTG DSNT N AND NW

FAA Disclaimer: The data displayed is for advisory purposes only and is not to be used for flight planning or operations.